Time;durP1;ratioP1;P1;durP2;ratioP2;P2;SDS_P1;SDS_P2;PMS_P1;PMS_P2;Temp;Humidity;BMP_temperature;BMP_pressure;BME280_temperature;BME280_humidity;BME280_pressure;Samples;Min_cycle;Max_cycle;Signal;HPM_P1;HPM_P2
2022/08/03 00:02:19;;;;;;;5.70;2.38;;;26.40;65.30;;;;;;5026053;28;20191;-78
2022/08/03 00:04:47;;;;;;;7.88;2.90;;;26.40;65.50;;;;;;5020349;28;20198;-78
2022/08/03 00:07:16;;;;;;;3.10;2.30;;;26.40;65.60;;;;;;5018530;28;20199;-77
2022/08/03 00:09:45;;;;;;;3.17;2.38;;;26.40;65.70;;;;;;5023336;28;20691;-78
2022/08/03 00:12:13;;;;;;;6.00;2.35;;;26.30;65.60;;;;;;5021532;28;20199;-77
2022/08/03 00:14:42;;;;;;;4.15;2.38;;;26.30;65.60;;;;;;5022290;28;20223;-78
2022/08/03 00:17:12;;;;;;;5.10;2.72;;;26.30;65.80;;;;;;5011922;28;20195;-76
2022/08/03 00:19:41;;;;;;;2.83;2.10;;;26.30;65.80;;;;;;5009727;28;21515;-77
2022/08/03 00:22:09;;;;;;;4.57;2.40;;;26.30;65.90;;;;;;5014178;28;20302;-76
2022/08/03 00:24:37;;;;;;;4.18;2.28;;;26.30;66.00;;;;;;5022776;28;20206;-76
2022/08/03 00:27:06;;;;;;;4.75;2.55;;;26.20;66.10;;;;;;5019804;28;20192;-76
2022/08/03 00:29:34;;;;;;;5.43;2.50;;;26.20;66.20;;;;;;5017975;28;20196;-76
2022/08/03 00:32:24;;;;;;;4.63;2.25;;;26.20;66.20;;;;;;5015116;28;20192;-76
2022/08/03 00:34:53;;;;;;;5.45;2.50;;;26.20;66.20;;;;;;5017987;28;20216;-76
2022/08/03 00:37:27;;;;;;;3.72;2.45;;;26.20;66.30;;;;;;5019669;28;20192;-76
2022/08/03 00:40:11;;;;;;;3.95;2.20;;;26.20;66.30;;;;;;5022055;28;20289;-76
2022/08/03 00:42:50;;;;;;;5.72;2.80;;;26.20;66.40;;;;;;5026025;28;20991;-77
2022/08/03 00:45:19;;;;;;;4.40;2.70;;;26.20;66.40;;;;;;5020984;28;20204;-76
2022/08/03 00:47:49;;;;;;;3.45;2.40;;;26.20;66.40;;;;;;5020154;28;20198;-76
2022/08/03 00:50:21;;;;;;;4.15;2.70;;;26.20;66.60;;;;;;5020918;28;20286;-75
2022/08/03 00:52:51;;;;;;;8.40;3.15;;;26.20;66.50;;;;;;5019850;28;20288;-76
2022/08/03 00:55:20;;;;;;;7.45;2.90;;;26.20;66.60;;;;;;5013807;28;20685;-76
2022/08/03 00:57:49;;;;;;;6.97;3.13;;;26.20;66.60;;;;;;5017240;28;20207;-75
2022/08/03 01:00:20;;;;;;;4.07;2.50;;;26.20;66.50;;;;;;5013235;28;20612;-76
2022/08/03 01:02:52;;;;;;;4.28;2.60;;;26.20;66.60;;;;;;5013411;28;20800;-76
2022/08/03 01:05:21;;;;;;;4.75;2.58;;;26.10;66.60;;;;;;5016876;28;20223;-76
2022/08/03 01:08:02;;;;;;;4.63;2.80;;;26.10;66.60;;;;;;5017845;28;20192;-76
2022/08/03 01:10:39;;;;;;;4.25;2.55;;;26.10;66.70;;;;;;5022007;28;20207;-76
2022/08/03 01:13:24;;;;;;;3.58;2.20;;;26.10;66.70;;;;;;5023142;28;20195;-77
2022/08/03 01:16:19;;;;;;;5.13;2.35;;;26.10;66.80;;;;;;5022157;28;20226;-76
2022/08/03 01:19:00;;;;;;;4.05;2.42;;;26.00;66.70;;;;;;5018250;28;20202;-76
2022/08/03 01:21:33;;;;;;;3.90;2.40;;;26.00;66.80;;;;;;5016583;28;20218;-76
2022/08/03 01:24:19;;;;;;;5.63;2.58;;;26.00;66.90;;;;;;5020683;28;20192;-76
2022/08/03 01:27:03;;;;;;;3.67;2.58;;;25.90;67.00;;;;;;5020042;28;20199;-76
2022/08/03 01:29:58;;;;;;;4.30;2.58;;;25.90;67.20;;;;;;5020817;28;20188;-76
2022/08/03 01:32:34;;;;;;;6.18;2.70;;;25.90;67.40;;;;;;5017805;28;20219;-76
2022/08/03 01:35:28;;;;;;;3.20;2.35;;;25.90;67.60;;;;;;5015903;28;20220;-76
2022/08/03 01:38:00;;;;;;;4.68;3.13;;;25.80;67.80;;;;;;5018263;28;20191;-76
2022/08/03 01:40:29;;;;;;;4.70;2.70;;;25.80;67.90;;;;;;5030006;28;20224;-77
2022/08/03 01:43:02;;;;;;;8.23;3.28;;;25.70;68.00;;;;;;5025640;28;20198;-77
2022/08/03 01:45:32;;;;;;;3.42;2.38;;;25.70;68.20;;;;;;5022599;28;20192;-77
2022/08/03 01:48:02;;;;;;;4.97;2.70;;;25.70;68.30;;;;;;5026120;28;20183;-77
2022/08/03 01:50:33;;;;;;;6.63;2.88;;;25.70;68.30;;;;;;5021818;28;20203;-77
2022/08/03 01:53:02;;;;;;;4.40;2.75;;;25.60;68.30;;;;;;5017624;28;20246;-77
2022/08/03 01:55:32;;;;;;;8.05;2.85;;;25.60;68.40;;;;;;5021128;28;20245;-77
2022/08/03 01:58:04;;;;;;;4.47;2.63;;;25.60;68.50;;;;;;5021270;28;20195;-77
2022/08/03 02:00:36;;;;;;;5.72;2.85;;;25.60;68.70;;;;;;5019078;28;20366;-77
2022/08/03 02:03:07;;;;;;;5.18;3.08;;;25.60;68.80;;;;;;5019624;28;20723;-77
2022/08/03 02:05:38;;;;;;;4.30;3.08;;;25.50;68.80;;;;;;5019617;28;20598;-77
2022/08/03 02:08:08;;;;;;;5.70;3.03;;;25.50;68.90;;;;;;5020803;28;20219;-77
2022/08/03 02:10:37;;;;;;;6.20;3.28;;;25.40;69.00;;;;;;5016947;28;20219;-77
2022/08/03 02:13:08;;;;;;;5.97;3.05;;;25.40;69.10;;;;;;5023327;28;20195;-77
2022/08/03 02:15:39;;;;;;;6.72;3.08;;;25.40;69.20;;;;;;5023355;28;20223;-75
2022/08/03 02:18:09;;;;;;;5.25;2.55;;;25.40;69.40;;;;;;5025857;28;20948;-76
2022/08/03 02:20:39;;;;;;;5.20;3.40;;;25.30;69.40;;;;;;5027779;28;20658;-77
2022/08/03 02:23:08;;;;;;;7.00;3.38;;;25.30;69.60;;;;;;5029236;28;20192;-77
2022/08/03 02:25:44;;;;;;;6.05;3.45;;;25.30;69.60;;;;;;5030892;28;20198;-77
2022/08/03 02:28:17;;;;;;;8.65;4.25;;;25.30;69.80;;;;;;5018809;28;20187;-76
2022/08/03 02:30:53;;;;;;;7.22;3.78;;;25.20;69.70;;;;;;5023443;28;20303;-77
2022/08/03 02:33:27;;;;;;;6.93;3.50;;;25.20;69.90;;;;;;5020297;28;20183;-77
2022/08/03 02:35:57;;;;;;;9.63;3.63;;;25.20;70.00;;;;;;5024595;28;20203;-77
2022/08/03 02:38:31;;;;;;;7.97;3.28;;;25.20;70.30;;;;;;5026448;28;20646;-76
2022/08/03 02:41:01;;;;;;;8.63;4.03;;;25.20;70.40;;;;;;5017249;28;20195;-78
2022/08/03 02:43:31;;;;;;;5.25;3.35;;;25.10;70.40;;;;;;5019986;28;20208;-75
2022/08/03 02:46:25;;;;;;;8.65;3.70;;;25.10;70.50;;;;;;5020992;28;20192;-76
2022/08/03 02:48:55;;;;;;;6.10;3.28;;;25.10;70.70;;;;;;5023475;28;20194;-76
2022/08/03 02:51:28;;;;;;;5.65;3.47;;;25.00;70.80;;;;;;5021375;28;20192;-76
2022/08/03 02:53:57;;;;;;;8.40;3.72;;;25.00;71.00;;;;;;5026082;28;20207;-77
2022/08/03 02:56:27;;;;;;;7.43;3.78;;;25.00;71.10;;;;;;5018944;28;20227;-76
2022/08/03 02:58:58;;;;;;;5.53;3.75;;;25.00;71.30;;;;;;5016791;28;20191;-76
2022/08/03 03:01:30;;;;;;;6.22;3.80;;;24.90;71.40;;;;;;5025656;28;20191;-78
2022/08/03 03:04:00;;;;;;;5.53;3.45;;;24.90;71.50;;;;;;5022854;28;20562;-76
2022/08/03 03:06:30;;;;;;;10.52;4.20;;;24.80;71.70;;;;;;5017374;28;20196;-76
2022/08/03 03:09:00;;;;;;;6.85;4.05;;;24.80;71.70;;;;;;5018037;28;20200;-76
2022/08/03 03:11:30;;;;;;;8.98;3.75;;;24.80;71.80;;;;;;5014129;28;20192;-76
2022/08/03 03:13:59;;;;;;;7.10;4.15;;;24.80;71.90;;;;;;5022482;28;20192;-77
2022/08/03 03:16:31;;;;;;;6.60;3.65;;;24.80;72.00;;;;;;5021603;28;20878;-76
2022/08/03 03:19:01;;;;;;;6.03;3.30;;;24.80;72.20;;;;;;5019320;28;20188;-76
2022/08/03 03:21:31;;;;;;;5.45;3.50;;;24.80;72.20;;;;;;5018101;28;20188;-76
2022/08/03 03:24:01;;;;;;;9.07;3.85;;;24.80;72.50;;;;;;5026961;28;21410;-76
2022/08/03 03:26:30;;;;;;;7.70;3.67;;;24.70;72.50;;;;;;5018470;28;20966;-76
2022/08/03 03:28:59;;;;;;;6.97;3.85;;;24.70;72.60;;;;;;5024475;28;20201;-76
2022/08/03 03:31:29;;;;;;;7.63;4.00;;;24.60;72.60;;;;;;5025612;28;20198;-76
2022/08/03 03:33:58;;;;;;;5.50;3.83;;;24.70;72.70;;;;;;5022903;28;20203;-76
2022/08/03 03:36:27;;;;;;;5.88;3.88;;;24.70;72.90;;;;;;5026017;28;20216;-76
2022/08/03 03:38:55;;;;;;;6.25;3.65;;;24.60;72.90;;;;;;5021141;28;20332;-76
2022/08/03 03:41:24;;;;;;;5.28;3.97;;;24.60;73.20;;;;;;5026459;28;20206;-77
2022/08/03 03:43:52;;;;;;;7.80;3.85;;;24.60;73.30;;;;;;5032365;28;20199;-77
2022/08/03 03:46:21;;;;;;;7.75;4.53;;;24.60;73.50;;;;;;5021901;28;20203;-76
2022/08/03 03:48:52;;;;;;;8.20;4.00;;;24.60;73.60;;;;;;5013328;28;20200;-76
2022/08/03 03:51:21;;;;;;;7.88;4.18;;;24.60;73.70;;;;;;5015453;28;20194;-76
2022/08/03 03:53:57;;;;;;;6.75;4.15;;;24.60;73.80;;;;;;5019559;28;20215;-76
2022/08/03 03:56:26;;;;;;;8.90;4.35;;;24.60;73.90;;;;;;5020323;28;20215;-75
2022/08/03 03:58:55;;;;;;;7.32;4.57;;;24.60;73.90;;;;;;5017018;28;20203;-76
2022/08/03 04:01:24;;;;;;;7.45;4.25;;;24.60;73.90;;;;;;5019499;28;20196;-76
2022/08/03 04:03:54;;;;;;;8.35;5.03;;;24.60;74.10;;;;;;5031786;28;20187;-76
2022/08/03 04:12:00;;;;;;;8.48;3.80;;;24.60;74.50;;;;;;5015359;28;20188;-76
2022/08/03 04:14:33;;;;;;;10.70;4.93;;;24.60;74.70;;;;;;5016846;28;20203;-75
2022/08/03 04:17:04;;;;;;;11.52;4.80;;;24.60;74.80;;;;;;5019848;28;20204;-76
2022/08/03 04:19:37;;;;;;;8.95;4.53;;;24.60;74.80;;;;;;5019651;28;20187;-76
2022/08/03 04:22:11;;;;;;;11.35;4.57;;;24.60;75.20;;;;;;5029016;28;20184;-76
2022/08/03 04:24:42;;;;;;;9.63;4.10;;;24.60;75.20;;;;;;5023336;28;20195;-75
2022/08/03 04:27:14;;;;;;;13.30;4.30;;;24.60;75.10;;;;;;5025797;28;20196;-76
2022/08/03 04:29:47;;;;;;;7.22;4.30;;;24.70;75.40;;;;;;5035176;28;20191;-77
2022/08/03 04:32:16;;;;;;;8.35;4.60;;;24.70;75.40;;;;;;5030421;28;20281;-77
2022/08/03 04:34:47;;;;;;;7.47;4.10;;;24.70;75.50;;;;;;5028906;28;20288;-77
2022/08/03 04:37:27;;;;;;;7.13;4.35;;;24.70;75.70;;;;;;5025359;28;20215;-77
2022/08/03 04:39:58;;;;;;;7.78;4.50;;;24.70;75.70;;;;;;5022364;28;20219;-76
2022/08/03 04:42:28;;;;;;;6.32;3.90;;;24.70;75.70;;;;;;5025210;28;20187;-76
2022/08/03 04:44:58;;;;;;;6.50;4.43;;;24.70;75.70;;;;;;5025172;28;20188;-76
2022/08/03 04:47:31;;;;;;;9.88;4.68;;;24.70;75.70;;;;;;5027667;28;20274;-77
2022/08/03 04:50:01;;;;;;;7.47;4.40;;;24.80;75.70;;;;;;5021013;28;20192;-76
2022/08/03 04:52:31;;;;;;;6.85;4.38;;;24.80;75.70;;;;;;5018210;28;20337;-79
2022/08/03 04:54:59;;;;;;;10.10;4.93;;;24.80;75.70;;;;;;5024353;28;22652;-77
2022/08/03 04:57:27;;;;;;;7.13;4.40;;;24.80;75.50;;;;;;5019436;28;20231;-77
2022/08/03 04:59:56;;;;;;;6.15;4.10;;;24.90;75.50;;;;;;5021862;28;20190;-76
2022/08/03 05:02:30;;;;;;;5.45;4.05;;;24.90;75.50;;;;;;5017609;28;20282;-76
2022/08/03 05:05:00;;;;;;;9.07;4.45;;;25.00;75.50;;;;;;5025746;28;20287;-76
2022/08/03 05:07:29;;;;;;;7.07;3.95;;;25.00;75.50;;;;;;5024397;28;20860;-77
2022/08/03 05:10:05;;;;;;;7.38;4.70;;;25.00;75.50;;;;;;5024582;28;20264;-76
2022/08/03 05:12:45;;;;;;;7.00;3.83;;;25.10;75.40;;;;;;5023410;28;21080;-77
2022/08/03 05:15:13;;;;;;;6.05;3.83;;;25.10;75.40;;;;;;5032796;28;20578;-77
2022/08/03 05:17:42;;;;;;;6.25;3.90;;;25.20;75.50;;;;;;5030431;28;20685;-76
2022/08/03 05:20:13;;;;;;;8.38;4.28;;;25.20;75.30;;;;;;5028683;28;20200;-76
2022/08/03 05:22:46;;;;;;;5.82;3.90;;;25.30;75.20;;;;;;5020070;28;20226;-76
2022/08/03 05:25:14;;;;;;;6.50;4.18;;;25.30;75.10;;;;;;5030352;28;20194;-76
2022/08/03 05:27:46;;;;;;;5.95;4.20;;;25.40;75.10;;;;;;5028716;28;20223;-77
2022/08/03 05:30:15;;;;;;;8.27;4.10;;;25.40;75.00;;;;;;5029761;28;20756;-75
2022/08/03 05:33:02;;;;;;;7.55;3.88;;;25.50;74.90;;;;;;5023907;28;20210;-77
2022/08/03 05:35:33;;;;;;;5.65;3.38;;;25.60;74.70;;;;;;5014705;28;20192;-77
2022/08/03 05:38:22;;;;;;;5.47;3.45;;;25.60;75.40;;;;;;5014073;28;20215;-78
2022/08/03 05:41:00;;;;;;;6.35;3.30;;;25.70;74.20;;;;;;5022118;28;20188;-77
2022/08/03 05:43:48;;;;;;;6.07;3.13;;;25.70;73.80;;;;;;5023645;28;20254;-77
2022/08/03 05:46:17;;;;;;;9.82;3.00;;;25.80;73.70;;;;;;5022432;28;20192;-76
2022/08/03 05:48:45;;;;;;;6.20;3.10;;;25.80;73.60;;;;;;5026083;28;20210;-77
2022/08/03 05:51:15;;;;;;;4.03;3.25;;;25.90;73.50;;;;;;5026983;28;20207;-78
2022/08/03 05:53:44;;;;;;;4.55;2.85;;;26.00;73.40;;;;;;5027256;28;20200;-78
2022/08/03 05:56:12;;;;;;;5.57;2.88;;;26.00;73.20;;;;;;5029101;28;20195;-77
2022/08/03 05:58:45;;;;;;;4.78;2.72;;;26.10;72.70;;;;;;5029166;28;20208;-78
2022/08/03 06:01:14;;;;;;;4.03;2.25;;;26.20;72.50;;;;;;5031862;28;20199;-78
2022/08/03 06:03:42;;;;;;;7.07;2.83;;;26.30;72.30;;;;;;5029490;28;20229;-77
2022/08/03 06:06:11;;;;;;;5.10;2.88;;;26.40;72.00;;;;;;5028281;28;20195;-77
2022/08/03 06:08:42;;;;;;;4.68;2.70;;;26.40;71.60;;;;;;5021798;28;20210;-77
2022/08/03 06:11:11;;;;;;;4.32;2.55;;;26.50;71.40;;;;;;5024471;28;20191;-77
2022/08/03 06:13:39;;;;;;;5.30;2.65;;;26.50;71.20;;;;;;5017888;28;20199;-78
2022/08/03 06:16:07;;;;;;;9.18;2.90;;;26.60;71.00;;;;;;5026025;28;20196;-77
2022/08/03 06:18:36;;;;;;;5.68;2.25;;;26.70;71.00;;;;;;5022540;28;20223;-78
2022/08/03 06:21:11;;;;;;;6.00;2.42;;;26.70;70.60;;;;;;5020934;28;20199;-78
2022/08/03 06:23:46;;;;;;;8.02;2.60;;;26.80;70.30;;;;;;4995539;28;20668;-77
2022/08/03 06:26:22;;;;;;;7.15;2.13;;;26.90;70.00;;;;;;5027777;28;20285;-76
2022/08/03 06:28:51;;;;;;;4.28;2.30;;;26.90;69.40;;;;;;5022541;28;20188;-77
2022/08/03 06:31:24;;;;;;;2.63;1.98;;;27.00;68.90;;;;;;5022072;28;20551;-76
2022/08/03 06:34:01;;;;;;;6.13;2.53;;;27.00;68.50;;;;;;5030793;28;20715;-77
2022/08/03 06:36:50;;;;;;;3.35;2.63;;;27.00;68.10;;;;;;5014935;28;20206;-77
2022/08/03 06:39:21;;;;;;;4.53;2.65;;;27.10;68.00;;;;;;5024133;28;20227;-77
2022/08/03 06:41:53;;;;;;;5.82;2.25;;;27.10;68.00;;;;;;5026692;28;20245;-78
2022/08/03 06:44:21;;;;;;;5.65;2.10;;;27.20;67.30;;;;;;5024719;28;20652;-75
2022/08/03 06:46:50;;;;;;;3.95;2.20;;;27.30;66.70;;;;;;5024569;28;20287;-77
2022/08/03 06:49:19;;;;;;;3.72;2.00;;;27.30;65.40;;;;;;5023822;28;20254;-77
2022/08/03 06:51:49;;;;;;;2.92;1.92;;;27.40;65.70;;;;;;5020176;28;20196;-76
2022/08/03 06:54:36;;;;;;;3.72;2.15;;;27.40;65.20;;;;;;5021583;28;20193;-77
2022/08/03 06:57:17;;;;;;;4.47;2.25;;;27.50;65.10;;;;;;5026849;28;20187;-77
2022/08/03 06:59:48;;;;;;;3.65;2.53;;;27.60;64.80;;;;;;5017876;28;20291;-76
2022/08/03 07:02:37;;;;;;;5.45;1.90;;;27.70;64.80;;;;;;5026399;28;20196;-76
2022/08/03 07:05:08;;;;;;;4.47;2.33;;;27.80;64.00;;;;;;5022776;28;20199;-76
2022/08/03 07:07:36;;;;;;;3.85;2.47;;;27.80;63.70;;;;;;5019995;28;20626;-76
2022/08/03 07:10:08;;;;;;;3.17;2.10;;;27.90;63.60;;;;;;5023480;28;20195;-75
2022/08/03 07:12:40;;;;;;;5.68;2.08;;;27.90;63.60;;;;;;5018679;28;20325;-77
2022/08/03 07:15:23;;;;;;;3.00;2.15;;;28.00;63.10;;;;;;5021331;28;20929;-74
2022/08/03 07:18:14;;;;;;;4.63;2.97;;;28.10;63.30;;;;;;5023445;28;20211;-75
2022/08/03 07:20:44;;;;;;;10.18;2.47;;;28.10;61.90;;;;;;5024447;28;20200;-75
2022/08/03 07:23:13;;;;;;;3.75;2.13;;;28.20;62.20;;;;;;5021110;28;20206;-75
2022/08/03 07:25:48;;;;;;;3.90;2.08;;;28.20;62.20;;;;;;5023150;28;20184;-76
2022/08/03 07:28:16;;;;;;;4.97;2.30;;;28.30;62.30;;;;;;5025920;28;20193;-76
2022/08/03 07:30:44;;;;;;;4.18;1.90;;;28.30;61.90;;;;;;5029752;28;20226;-76
2022/08/03 07:33:15;;;;;;;2.72;2.03;;;28.40;61.50;;;;;;5020609;28;20199;-75
2022/08/03 07:35:45;;;;;;;3.33;2.10;;;28.40;61.30;;;;;;5018110;28;20629;-76
2022/08/03 07:38:15;;;;;;;3.33;1.77;;;28.50;60.80;;;;;;5017433;28;20925;-77
2022/08/03 07:40:43;;;;;;;2.63;1.80;;;28.50;59.50;;;;;;5030806;28;20298;-79
2022/08/03 07:43:16;;;;;;;4.35;1.95;;;28.60;59.20;;;;;;5024941;28;20641;-78
2022/08/03 07:45:44;;;;;;;3.80;1.67;;;28.60;59.20;;;;;;5024115;28;20546;-76
2022/08/03 07:48:13;;;;;;;3.88;1.88;;;28.70;58.90;;;;;;5013134;28;20202;-75
2022/08/03 07:50:41;;;;;;;4.10;2.20;;;28.70;58.80;;;;;;5024224;28;20191;-77
2022/08/03 07:53:09;;;;;;;4.57;1.80;;;28.80;59.00;;;;;;5018801;28;20203;-75
2022/08/03 07:55:38;;;;;;;3.00;1.73;;;28.80;58.30;;;;;;5037892;28;20707;-78
2022/08/03 07:58:11;;;;;;;5.32;2.15;;;28.80;58.20;;;;;;5023814;28;20226;-77
2022/08/03 08:00:41;;;;;;;2.22;2.03;;;28.90;57.20;;;;;;5019765;28;20233;-77
2022/08/03 08:03:10;;;;;;;6.55;2.13;;;28.90;57.60;;;;;;5018155;28;20366;-77
2022/08/03 08:05:41;;;;;;;3.05;2.00;;;29.00;57.70;;;;;;5020103;28;20690;-75
2022/08/03 08:08:09;;;;;;;3.25;1.90;;;29.00;57.90;;;;;;5016972;28;20196;-76
2022/08/03 08:10:37;;;;;;;2.50;1.75;;;29.10;58.00;;;;;;5022128;28;20200;-75
2022/08/03 08:13:06;;;;;;;3.28;1.90;;;29.10;57.80;;;;;;5018578;28;20195;-75
2022/08/03 08:15:34;;;;;;;2.95;1.88;;;29.20;57.30;;;;;;5032097;28;20218;-76
2022/08/03 08:18:11;;;;;;;2.78;1.70;;;29.20;57.30;;;;;;5028606;28;20190;-77
2022/08/03 08:20:42;;;;;;;4.45;2.25;;;29.20;57.20;;;;;;5022520;28;20215;-75
2022/08/03 08:23:12;;;;;;;4.47;2.30;;;29.20;56.90;;;;;;5026449;28;20726;-76
2022/08/03 08:26:00;;;;;;;3.83;2.03;;;29.30;57.00;;;;;;5021876;28;20747;-77
2022/08/03 08:28:29;;;;;;;4.40;1.85;;;29.40;57.20;;;;;;5022933;28;20942;-75
2022/08/03 08:31:01;;;;;;;3.30;1.90;;;29.30;56.60;;;;;;5030019;28;20780;-76
2022/08/03 08:33:31;;;;;;;4.78;1.70;;;29.40;56.20;;;;;;5019191;28;20244;-75
2022/08/03 08:36:20;;;;;;;2.88;2.13;;;29.40;56.30;;;;;;5019246;28;20219;-78
2022/08/03 08:38:48;;;;;;;1.98;1.70;;;29.50;56.30;;;;;;5027835;28;20270;-77
2022/08/03 08:41:21;;;;;;;5.43;2.17;;;29.50;56.30;;;;;;5028565;28;20276;-76
2022/08/03 08:43:50;;;;;;;4.45;2.00;;;29.60;56.20;;;;;;5031975;28;20195;-76
2022/08/03 08:46:19;;;;;;;9.27;2.03;;;29.60;56.00;;;;;;5029478;28;20199;-76
2022/08/03 08:48:53;;;;;;;6.85;2.03;;;29.60;55.50;;;;;;5033139;28;20789;-76
2022/08/03 08:51:27;;;;;;;3.28;2.03;;;29.60;55.30;;;;;;5030231;28;20184;-77
2022/08/03 08:54:18;;;;;;;2.30;1.52;;;29.60;54.50;;;;;;5034657;28;20195;-77
2022/08/03 08:56:48;;;;;;;4.63;2.03;;;29.70;55.10;;;;;;5033562;28;20195;-76
2022/08/03 08:59:17;;;;;;;5.78;2.22;;;29.80;55.40;;;;;;5024308;28;20208;-78
2022/08/03 09:01:45;;;;;;;3.15;2.00;;;29.80;55.10;;;;;;5031798;28;20191;-75
2022/08/03 09:04:16;;;;;;;2.35;1.90;;;29.80;55.10;;;;;;5024736;28;20200;-76
2022/08/03 09:06:45;;;;;;;2.20;1.67;;;29.90;54.90;;;;;;5028389;28;20183;-75
2022/08/03 09:09:33;;;;;;;2.83;1.88;;;29.90;54.50;;;;;;5022798;28;20191;-78
2022/08/03 09:12:22;;;;;;;1.80;1.50;;;29.90;53.60;;;;;;5026063;28;20934;-75
2022/08/03 09:15:21;;;;;;;7.18;1.65;;;30.00;53.70;;;;;;5019487;28;20187;-76
2022/08/03 09:17:50;;;;;;;3.95;1.98;;;30.00;54.10;;;;;;5029707;28;20183;-78
2022/08/03 09:20:21;;;;;;;3.28;2.00;;;30.00;53.90;;;;;;5029790;28;20230;-77
2022/08/03 09:22:58;;;;;;;2.90;1.77;;;30.10;53.90;;;;;;5029889;28;20206;-78
2022/08/03 09:25:32;;;;;;;3.60;2.13;;;30.10;54.00;;;;;;5027918;28;20623;-77
2022/08/03 09:28:10;;;;;;;3.40;1.80;;;30.20;54.20;;;;;;5021146;28;20198;-75
2022/08/03 09:30:40;;;;;;;3.80;1.80;;;30.30;54.10;;;;;;5024606;28;21178;-77
2022/08/03 09:33:10;;;;;;;2.95;1.90;;;30.20;53.50;;;;;;5027120;28;20636;-76
2022/08/03 09:35:44;;;;;;;2.50;1.85;;;30.30;53.70;;;;;;5026671;28;20416;-77
2022/08/03 09:38:24;;;;;;;5.20;1.73;;;30.30;53.60;;;;;;5025473;28;20211;-75
2022/08/03 09:40:54;;;;;;;4.45;1.90;;;30.40;53.60;;;;;;5030028;28;20211;-78
2022/08/03 09:43:27;;;;;;;2.85;2.00;;;30.40;53.50;;;;;;5030404;28;20188;-75
2022/08/03 09:46:03;;;;;;;4.32;2.05;;;30.50;53.60;;;;;;5029394;28;20270;-77
2022/08/03 09:48:33;;;;;;;3.28;2.00;;;30.60;53.30;;;;;;5020313;28;20188;-79
2022/08/03 09:51:05;;;;;;;2.53;1.80;;;30.60;53.40;;;;;;5023598;28;20369;-78
2022/08/03 09:53:58;;;;;;;5.82;1.95;;;30.70;53.30;;;;;;5022258;28;20201;-77
2022/08/03 09:56:40;;;;;;;3.20;1.98;;;30.70;52.80;;;;;;5025084;28;20644;-77
2022/08/03 09:59:09;;;;;;;1.98;1.40;;;30.70;52.30;;;;;;5028486;28;20302;-77
2022/08/03 10:01:40;;;;;;;3.17;2.15;;;30.70;52.30;;;;;;5019527;28;20208;-77
2022/08/03 10:04:18;;;;;;;3.55;2.10;;;30.80;51.80;;;;;;5028564;28;20229;-77
2022/08/03 10:07:05;;;;;;;5.78;2.25;;;30.90;51.90;;;;;;5023700;28;20206;-76
2022/08/03 10:09:34;;;;;;;3.88;2.30;;;30.90;51.80;;;;;;5028486;28;20864;-77
2022/08/03 10:12:10;;;;;;;4.50;1.77;;;31.00;52.00;;;;;;5034849;28;20196;-77
2022/08/03 10:14:44;;;;;;;2.40;1.73;;;31.10;51.70;;;;;;5036739;28;20191;-76
2022/08/03 10:17:12;;;;;;;2.65;1.83;;;31.10;50.70;;;;;;5028414;28;20202;-76
2022/08/03 10:19:41;;;;;;;2.58;1.60;;;31.20;50.50;;;;;;5027103;28;20227;-76
2022/08/03 10:22:13;;;;;;;3.35;1.85;;;31.30;51.00;;;;;;5030885;28;20695;-76
2022/08/03 10:24:50;;;;;;;3.17;1.50;;;31.40;51.50;;;;;;5024692;28;20641;-75
2022/08/03 10:27:20;;;;;;;5.05;1.92;;;31.40;51.10;;;;;;5025725;28;20188;-77
2022/08/03 10:29:53;;;;;;;1.95;1.67;;;31.50;50.90;;;;;;5016518;28;20757;-77
2022/08/03 10:32:27;;;;;;;1.85;1.52;;;31.60;50.60;;;;;;5024210;28;20202;-77
2022/08/03 10:35:08;;;;;;;2.22;1.60;;;31.70;50.40;;;;;;5029091;28;20195;-77
2022/08/03 10:37:57;;;;;;;1.75;1.40;;;31.70;49.60;;;;;;5035806;28;20214;-77
2022/08/03 10:40:28;;;;;;;4.30;1.70;;;31.80;49.30;;;;;;5028532;28;20254;-77
2022/08/03 10:43:20;;;;;;;2.08;1.60;;;31.80;49.30;;;;;;5032971;28;20203;-76
2022/08/03 10:45:50;;;;;;;2.95;1.77;;;31.80;49.40;;;;;;5026474;28;20575;-77
2022/08/03 10:48:19;;;;;;;2.72;1.70;;;31.80;49.10;;;;;;5025871;28;20661;-77
2022/08/03 10:50:49;;;;;;;5.43;1.52;;;31.70;49.00;;;;;;5033589;28;20198;-76
2022/08/03 10:53:35;;;;;;;3.60;1.83;;;31.80;49.40;;;;;;5024394;28;20191;-77
2022/08/03 10:59:10;;;;;;;3.05;1.50;;;31.90;49.40;;;;;;5033313;28;20202;-76
2022/08/03 11:01:51;;;;;;;2.30;1.77;;;31.90;49.80;;;;;;5027074;28;20211;-76
2022/08/03 11:04:28;;;;;;;5.78;2.13;;;32.00;49.80;;;;;;5023697;28;20819;-76
2022/08/03 11:07:20;;;;;;;6.60;2.47;;;32.10;49.80;;;;;;5023567;28;20184;-75
2022/08/03 11:09:51;;;;;;;5.00;1.60;;;32.20;49.70;;;;;;5022843;28;20760;-78
2022/08/03 11:12:23;;;;;;;5.88;2.42;;;32.20;49.60;;;;;;5033243;28;20195;-75
2022/08/03 11:15:00;;;;;;;4.32;1.63;;;32.30;49.30;;;;;;5031140;28;20188;-78
2022/08/03 11:17:29;;;;;;;2.20;1.70;;;32.30;49.30;;;;;;5036015;28;20191;-76
2022/08/03 11:19:57;;;;;;;3.60;2.03;;;32.40;48.90;;;;;;5034151;28;20223;-78
2022/08/03 11:22:46;;;;;;;2.60;1.98;;;32.40;48.60;;;;;;5028029;28;20650;-76
2022/08/03 11:25:16;;;;;;;3.13;1.63;;;32.40;48.80;;;;;;5015058;28;20185;-78
2022/08/03 11:28:25;;;;;;;3.58;1.70;;;32.50;48.70;;;;;;5025621;28;20199;-75
2022/08/03 11:30:54;;;;;;;3.00;1.80;;;32.50;48.60;;;;;;5025261;28;20797;-76
2022/08/03 11:33:31;;;;;;;1.95;1.60;;;32.60;48.50;;;;;;5027124;28;20742;-75
2022/08/03 11:36:02;;;;;;;2.50;1.65;;;32.60;48.40;;;;;;5024606;28;20322;-75
2022/08/03 11:38:30;;;;;;;4.03;1.50;;;32.60;47.10;;;;;;5028916;28;20196;-77
2022/08/03 11:41:01;;;;;;;3.15;1.30;;;32.70;47.50;;;;;;5031350;28;20899;-76
2022/08/03 11:43:46;;;;;;;2.72;1.42;;;32.70;47.30;;;;;;5020284;28;20234;-78
2022/08/03 11:46:18;;;;;;;3.42;1.67;;;32.80;47.20;;;;;;5030322;28;20606;-78
2022/08/03 11:49:04;;;;;;;2.95;1.80;;;32.80;47.20;;;;;;5035534;28;20199;-76
2022/08/03 11:51:39;;;;;;;2.92;1.65;;;32.80;47.10;;;;;;5022110;28;20199;-77
2022/08/03 11:54:08;;;;;;;4.80;2.17;;;32.90;47.10;;;;;;5029843;28;20756;-77
2022/08/03 11:56:49;;;;;;;1.95;1.60;;;32.90;46.70;;;;;;5030255;28;20192;-75
2022/08/03 11:59:17;;;;;;;4.53;2.03;;;32.90;47.00;;;;;;5028782;28;20207;-76
2022/08/03 12:01:50;;;;;;;3.10;1.80;;;33.00;46.80;;;;;;5028005;28;20207;-77
2022/08/03 12:04:18;;;;;;;3.28;1.80;;;33.00;46.60;;;;;;5031895;28;20195;-76
2022/08/03 12:07:00;;;;;;;4.35;1.70;;;33.10;46.80;;;;;;5027307;28;20203;-77
2022/08/03 12:09:28;;;;;;;2.63;1.50;;;33.10;46.10;;;;;;5022011;28;20557;-75
2022/08/03 12:11:58;;;;;;;2.70;1.45;;;33.10;46.60;;;;;;5023721;28;20243;-76
2022/08/03 12:14:30;;;;;;;2.17;1.70;;;33.10;46.10;;;;;;5023188;28;20200;-76
2022/08/03 12:17:18;;;;;;;2.38;1.67;;;33.10;46.10;;;;;;5027582;28;20207;-77
2022/08/03 12:19:47;;;;;;;2.63;1.77;;;33.20;46.30;;;;;;5023364;28;20196;-75
2022/08/03 12:22:16;;;;;;;2.13;1.60;;;33.20;46.40;;;;;;5022987;28;20219;-76
2022/08/03 12:24:45;;;;;;;2.10;1.60;;;33.20;46.00;;;;;;5023321;28;20202;-76
2022/08/03 12:27:25;;;;;;;1.80;1.38;;;33.20;46.10;;;;;;5026295;28;20191;-76
2022/08/03 12:29:55;;;;;;;4.32;1.65;;;33.20;46.10;;;;;;5025291;28;20222;-74
2022/08/03 12:32:27;;;;;;;4.72;1.80;;;33.20;44.80;;;;;;5025542;28;20192;-76
2022/08/03 12:34:59;;;;;;;1.90;1.20;;;33.20;45.10;;;;;;5023361;28;20194;-77
2022/08/03 12:37:28;;;;;;;2.20;1.80;;;33.30;45.00;;;;;;5016506;28;20863;-76
2022/08/03 12:40:00;;;;;;;1.73;1.42;;;33.30;44.70;;;;;;5027261;28;20310;-78
2022/08/03 12:42:39;;;;;;;4.85;1.63;;;33.30;44.70;;;;;;5030045;28;20707;-77
2022/08/03 12:45:22;;;;;;;1.55;1.42;;;33.30;44.40;;;;;;5029277;28;20192;-77
2022/08/03 12:47:52;;;;;;;1.73;1.40;;;33.30;44.70;;;;;;5027926;28;20880;-77
2022/08/03 12:50:28;;;;;;;4.28;1.60;;;33.30;45.10;;;;;;5026471;28;20199;-75
2022/08/03 12:52:59;;;;;;;1.50;1.40;;;33.40;44.50;;;;;;5029445;28;20188;-77
2022/08/03 12:55:32;;;;;;;2.45;1.42;;;33.40;44.40;;;;;;5024163;28;20722;-77
2022/08/03 12:58:33;;;;;;;2.33;1.65;;;33.40;44.40;;;;;;5030807;28;20198;-78
2022/08/03 13:01:03;;;;;;;2.25;1.25;;;33.50;44.60;;;;;;5015763;28;20215;-77
2022/08/03 13:03:42;;;;;;;3.28;1.50;;;33.50;44.60;;;;;;5028305;28;20207;-78
2022/08/03 13:06:19;;;;;;;1.67;1.30;;;33.50;44.50;;;;;;5029719;28;20236;-76
2022/08/03 13:08:48;;;;;;;2.38;1.52;;;33.60;44.70;;;;;;5025150;28;20196;-76
2022/08/03 13:11:25;;;;;;;3.67;1.50;;;33.60;44.20;;;;;;5015372;28;20199;-78
2022/08/03 13:14:14;;;;;;;2.17;1.42;;;33.60;44.00;;;;;;5032574;28;20265;-77
2022/08/03 13:16:48;;;;;;;3.55;1.50;;;33.60;44.30;;;;;;5023162;28;20190;-75
2022/08/03 13:19:16;;;;;;;6.35;1.73;;;33.70;43.90;;;;;;5027872;28;20199;-77
2022/08/03 13:21:47;;;;;;;2.35;1.73;;;33.70;43.80;;;;;;5022539;28;20771;-75
2022/08/03 13:24:31;;;;;;;4.20;1.58;;;33.80;43.90;;;;;;5024315;28;20192;-76
2022/08/03 13:27:01;;;;;;;4.78;1.80;;;33.80;43.60;;;;;;5024964;28;20198;-75